Time;durP1;ratioP1;P1;durP2;ratioP2;P2;SDS_P1;SDS_P2;PMS_P1;PMS_P2;Temp;Humidity;BMP_temperature;BMP_pressure;BME280_temperature;BME280_humidity;BME280_pressure;Samples;Min_cycle;Max_cycle;Signal;HPM_P1;HPM_P2
2023/04/23 00:01:59;;;;;;;1.75;0.68;;;20.60;62.00;;;;;;5009050;28;20581;-68
2023/04/23 00:04:27;;;;;;;1.95;0.80;;;20.60;62.00;;;;;;5008693;28;20867;-68
2023/04/23 00:06:57;;;;;;;2.55;0.98;;;20.60;62.00;;;;;;5008165;28;20053;-69
2023/04/23 00:09:25;;;;;;;;;;;20.60;62.00;;;;;;4990093;28;20054;-68
2023/04/23 00:11:52;;;;;;;;;;;20.60;62.00;;;;;;4989156;28;20334;-68
2023/04/23 00:14:19;;;;;;;2.00;0.93;;;20.50;62.00;;;;;;4990184;28;19926;-68
2023/04/23 00:16:47;;;;;;;2.10;0.90;;;20.50;62.00;;;;;;4989832;28;20138;-68
2023/04/23 00:19:14;;;;;;;1.75;1.08;;;20.50;62.00;;;;;;4990616;28;20050;-68
2023/04/23 00:21:41;;;;;;;2.55;0.80;;;20.50;62.00;;;;;;4990837;28;20056;-68
2023/04/23 00:24:09;;;;;;;2.70;1.65;;;20.50;61.90;;;;;;4990703;28;20069;-68
2023/04/23 00:26:36;;;;;;;2.22;0.80;;;20.50;62.00;;;;;;4976625;28;20511;-68
2023/04/23 00:29:03;;;;;;;1.70;0.60;;;20.50;61.90;;;;;;4970670;28;20073;-68
2023/04/23 00:31:30;;;;;;;2.13;0.82;;;20.50;61.90;;;;;;4969684;28;20468;-68
2023/04/23 00:33:57;;;;;;;2.03;0.95;;;20.50;62.00;;;;;;4989882;28;20530;-68
2023/04/23 00:36:24;;;;;;;2.22;1.05;;;20.50;61.90;;;;;;4990397;28;20058;-68
2023/04/23 00:38:52;;;;;;;2.08;0.98;;;20.50;62.00;;;;;;4989242;28;20415;-69
2023/04/23 00:41:21;;;;;;;2.15;1.08;;;20.50;61.90;;;;;;4989759;28;20089;-68
2023/04/23 00:43:51;;;;;;;2.85;1.63;;;20.50;62.00;;;;;;4990024;28;20443;-68
2023/04/23 00:46:18;;;;;;;1.50;0.98;;;20.50;62.00;;;;;;4990080;28;20054;-69
2023/04/23 00:48:46;;;;;;;2.42;1.05;;;20.50;61.90;;;;;;4989300;28;20046;-68
2023/04/23 00:51:15;;;;;;;3.00;1.00;;;20.50;61.90;;;;;;4988963;28;20054;-68
2023/04/23 00:53:42;;;;;;;2.70;1.05;;;20.50;61.90;;;;;;4990165;28;20046;-68
2023/04/23 00:56:10;;;;;;;1.85;1.00;;;20.50;61.90;;;;;;4990499;28;20046;-68
2023/04/23 00:58:39;;;;;;;2.03;0.90;;;20.40;61.90;;;;;;4980866;28;20507;-68
2023/04/23 01:01:06;;;;;;;1.80;0.80;;;20.40;61.90;;;;;;4975703;28;20058;-68
2023/04/23 01:03:35;;;;;;;2.38;0.95;;;20.40;61.90;;;;;;4970370;28;20493;-67
2023/04/23 01:06:03;;;;;;;2.40;1.20;;;20.40;61.90;;;;;;4974179;28;20086;-68
2023/04/23 01:08:31;;;;;;;2.90;1.17;;;20.40;61.90;;;;;;4989603;28;20495;-68
2023/04/23 01:10:58;;;;;;;2.63;1.00;;;20.40;62.50;;;;;;4988810;28;20109;-68
2023/04/23 01:13:28;;;;;;;2.08;0.80;;;20.40;61.80;;;;;;4989755;28;20098;-68
2023/04/23 01:15:57;;;;;;;2.33;0.98;;;20.40;61.90;;;;;;4989629;28;20146;-68
2023/04/23 01:18:24;;;;;;;2.83;1.33;;;20.40;61.90;;;;;;4990155;28;20092;-68
2023/04/23 01:20:52;;;;;;;1.58;0.95;;;20.40;61.80;;;;;;4988616;28;20057;-68
2023/04/23 01:23:20;;;;;;;1.67;0.85;;;20.40;61.90;;;;;;4995650;28;20057;-68
2023/04/23 01:25:47;;;;;;;1.92;1.20;;;20.40;61.80;;;;;;4993145;28;20056;-67
2023/04/23 01:28:15;;;;;;;2.40;0.88;;;20.40;61.90;;;;;;4992674;28;20479;-68
2023/04/23 01:30:43;;;;;;;2.63;1.23;;;20.40;61.80;;;;;;4992528;28;20054;-68
2023/04/23 01:33:11;;;;;;;2.13;1.08;;;20.40;61.80;;;;;;4993431;28;20507;-69
2023/04/23 01:35:40;;;;;;;1.80;0.88;;;20.40;61.80;;;;;;4993786;28;20050;-68
2023/04/23 01:38:10;;;;;;;2.03;0.88;;;20.40;61.80;;;;;;4992021;28;20066;-68
2023/04/23 01:40:38;;;;;;;;;;;20.40;61.80;;;;;;4993168;28;20054;-69
2023/04/23 01:43:06;;;;;;;1.98;1.00;;;20.40;61.80;;;;;;4993106;28;19925;-69
2023/04/23 01:45:33;;;;;;;2.05;0.88;;;20.40;61.80;;;;;;4993510;28;20057;-69
2023/04/23 01:48:00;;;;;;;1.90;1.00;;;20.30;61.70;;;;;;4992064;28;20550;-69
2023/04/23 01:50:28;;;;;;;1.70;0.93;;;20.30;61.70;;;;;;4993125;28;20057;-69
2023/04/23 01:52:55;;;;;;;2.15;0.77;;;20.30;61.70;;;;;;4993294;28;20046;-68
2023/04/23 01:55:23;;;;;;;1.70;0.80;;;20.30;61.70;;;;;;4993391;28;20061;-68
2023/04/23 01:57:51;;;;;;;2.13;0.93;;;20.30;61.70;;;;;;4990826;28;20046;-68
2023/04/23 02:00:19;;;;;;;2.63;1.10;;;20.30;61.70;;;;;;4981814;28;20054;-69
2023/04/23 02:02:46;;;;;;;1.75;1.10;;;20.30;61.70;;;;;;4993113;28;20117;-68
2023/04/23 02:05:15;;;;;;;2.30;1.10;;;20.30;61.70;;;;;;4991486;28;20149;-68
2023/04/23 02:07:43;;;;;;;2.88;1.08;;;20.30;61.70;;;;;;4993067;28;20057;-68
2023/04/23 02:10:10;;;;;;;2.15;0.93;;;20.30;61.70;;;;;;4992787;28;20137;-67
2023/04/23 02:12:38;;;;;;;2.03;0.98;;;20.30;61.70;;;;;;4992677;28;20142;-68
2023/04/23 02:15:09;;;;;;;1.95;0.95;;;20.30;61.70;;;;;;5003584;28;20072;-68
2023/04/23 02:17:38;;;;;;;1.60;0.63;;;20.30;61.70;;;;;;5010609;28;20426;-68
2023/04/23 02:20:08;;;;;;;1.95;0.80;;;20.30;61.70;;;;;;5011253;28;20406;-68
2023/04/23 02:22:35;;;;;;;1.92;1.15;;;20.30;61.70;;;;;;5007783;28;20403;-68
2023/04/23 02:25:02;;;;;;;2.08;0.90;;;20.30;61.70;;;;;;4991252;28;20062;-68
2023/04/23 02:27:29;;;;;;;2.13;0.70;;;20.30;61.70;;;;;;4992619;28;20061;-68
2023/04/23 02:29:56;;;;;;;2.67;0.93;;;20.30;61.70;;;;;;4991502;28;20054;-68
2023/04/23 02:32:25;;;;;;;2.38;0.93;;;20.30;61.70;;;;;;4993179;28;20066;-68
2023/04/23 02:34:52;;;;;;;2.00;1.00;;;20.30;61.70;;;;;;4990312;28;20054;-68
2023/04/23 02:37:19;;;;;;;1.80;0.93;;;20.30;61.60;;;;;;4991415;28;20076;-68
2023/04/23 02:39:46;;;;;;;2.03;0.82;;;20.30;61.70;;;;;;4991080;28;20078;-69
2023/04/23 02:42:13;;;;;;;2.45;1.20;;;20.30;61.60;;;;;;4990783;28;20053;-68
2023/04/23 02:44:40;;;;;;;1.75;0.93;;;20.20;61.60;;;;;;4991964;28;20060;-67
2023/04/23 02:47:07;;;;;;;2.40;1.10;;;20.30;62.20;;;;;;4992422;28;20042;-68
2023/04/23 02:49:35;;;;;;;2.33;1.10;;;20.30;61.70;;;;;;4992809;28;20132;-68
2023/04/23 02:52:03;;;;;;;1.55;0.93;;;20.20;61.60;;;;;;4992381;28;20054;-67
2023/04/23 02:54:31;;;;;;;1.90;0.85;;;20.20;61.60;;;;;;4992111;28;20069;-68
2023/04/23 02:56:58;;;;;;;1.73;0.88;;;20.20;61.60;;;;;;4990322;28;20054;-68
2023/04/23 02:59:25;;;;;;;2.20;1.25;;;20.30;61.70;;;;;;4984890;28;20051;-68
2023/04/23 03:01:52;;;;;;;1.95;0.73;;;20.20;61.60;;;;;;4971024;28;20055;-68
2023/04/23 03:04:19;;;;;;;2.00;0.93;;;20.20;61.60;;;;;;4972537;28;20046;-68
2023/04/23 03:06:47;;;;;;;1.92;1.02;;;20.20;61.60;;;;;;4989645;28;20078;-68
2023/04/23 03:09:15;;;;;;;1.42;0.65;;;20.20;61.70;;;;;;4991820;28;20129;-68
2023/04/23 03:11:42;;;;;;;2.30;0.90;;;20.20;61.60;;;;;;4989988;28;20054;-68
2023/04/23 03:14:09;;;;;;;1.88;1.08;;;20.20;61.60;;;;;;4991651;28;20049;-67
2023/04/23 03:16:36;;;;;;;1.80;0.90;;;20.20;61.50;;;;;;4991420;28;20058;-68
2023/04/23 03:19:02;;;;;;;2.05;1.65;;;20.20;61.50;;;;;;4990323;28;20050;-68
2023/04/23 03:21:30;;;;;;;2.13;0.82;;;20.20;61.50;;;;;;4991651;28;20046;-67
2023/04/23 03:23:58;;;;;;;1.67;0.75;;;20.20;61.60;;;;;;4991732;28;20089;-68
2023/04/23 03:26:25;;;;;;;1.90;0.93;;;20.20;61.60;;;;;;4991118;28;20451;-68
2023/04/23 03:28:52;;;;;;;2.10;0.90;;;20.20;61.50;;;;;;4990251;28;20062;-68
2023/04/23 03:31:19;;;;;;;2.97;1.33;;;20.10;61.50;;;;;;4991446;28;20051;-68
2023/04/23 03:33:46;;;;;;;1.63;0.98;;;20.10;61.50;;;;;;4991636;28;20050;-67
2023/04/23 03:36:14;;;;;;;2.65;1.00;;;20.10;61.50;;;;;;4991382;28;20046;-68
2023/04/23 03:38:41;;;;;;;1.60;0.70;;;20.10;61.50;;;;;;4989937;28;20049;-68
2023/04/23 03:41:09;;;;;;;2.20;1.00;;;20.10;61.50;;;;;;5009911;28;20050;-68
2023/04/23 03:43:36;;;;;;;2.03;0.95;;;20.10;61.50;;;;;;5010601;28;20061;-68
2023/04/23 03:46:03;;;;;;;1.88;0.90;;;20.10;61.50;;;;;;5009428;28;20065;-68
2023/04/23 03:48:30;;;;;;;2.08;1.27;;;20.10;61.50;;;;;;5010172;28;20418;-67
2023/04/23 03:50:58;;;;;;;1.92;0.90;;;20.10;61.50;;;;;;5009368;28;20057;-69
2023/04/23 03:53:25;;;;;;;2.05;1.00;;;20.10;61.50;;;;;;5010275;28;20057;-69
2023/04/23 03:55:52;;;;;;;1.50;0.77;;;20.10;61.40;;;;;;5008222;28;20065;-68
2023/04/23 03:58:20;;;;;;;1.70;0.85;;;20.10;61.50;;;;;;4988015;28;20070;-68
2023/04/23 04:00:47;;;;;;;1.77;1.20;;;20.10;61.50;;;;;;4978666;28;20574;-68
2023/04/23 04:03:14;;;;;;;2.10;0.95;;;20.10;61.50;;;;;;4970102;28;20054;-68
2023/04/23 04:05:41;;;;;;;1.65;1.02;;;20.10;61.50;;;;;;4978787;28;20058;-68
2023/04/23 04:08:08;;;;;;;2.78;1.02;;;20.10;61.50;;;;;;4989275;28;20066;-68
2023/04/23 04:10:35;;;;;;;1.60;0.88;;;20.00;61.40;;;;;;4990159;28;20582;-68
2023/04/23 04:13:02;;;;;;;2.08;1.00;;;20.00;61.40;;;;;;4992641;28;20083;-68
2023/04/23 04:15:31;;;;;;;1.95;1.10;;;20.00;61.40;;;;;;5009884;28;20065;-67
2023/04/23 04:17:59;;;;;;;2.28;0.98;;;20.00;61.40;;;;;;5009781;28;20140;-68
2023/04/23 04:20:27;;;;;;;1.70;0.90;;;20.00;61.40;;;;;;4998883;28;20475;-68
2023/04/23 04:22:55;;;;;;;1.58;0.80;;;20.00;61.50;;;;;;4989078;28;20141;-68
2023/04/23 04:25:23;;;;;;;2.00;0.90;;;20.00;61.40;;;;;;4989806;28;20457;-68
2023/04/23 04:27:50;;;;;;;2.05;0.88;;;20.00;61.40;;;;;;4989872;28;20507;-68
2023/04/23 04:30:17;;;;;;;1.85;0.95;;;20.00;61.40;;;;;;4990727;28;20092;-68
2023/04/23 04:32:46;;;;;;;2.30;0.93;;;20.00;61.40;;;;;;4988436;28;20142;-68
2023/04/23 04:35:13;;;;;;;2.15;1.10;;;20.00;61.40;;;;;;4988555;28;20431;-68
2023/04/23 04:37:40;;;;;;;2.13;0.90;;;20.00;61.40;;;;;;4989780;28;20133;-68
2023/04/23 04:40:10;;;;;;;1.70;0.90;;;19.90;61.40;;;;;;4988998;28;20141;-68
2023/04/23 04:42:38;;;;;;;;;;;20.00;61.40;;;;;;4990121;28;20140;-68
2023/04/23 04:45:07;;;;;;;1.55;0.90;;;20.00;61.40;;;;;;4990429;28;19930;-67
2023/04/23 04:47:35;;;;;;;1.42;0.85;;;20.00;61.40;;;;;;4990580;28;20128;-69
2023/04/23 04:50:03;;;;;;;1.50;0.60;;;20.00;61.40;;;;;;4989962;28;20058;-68
2023/04/23 04:52:30;;;;;;;2.30;0.80;;;20.00;61.40;;;;;;4989980;28;20050;-67
2023/04/23 04:54:57;;;;;;;1.58;0.63;;;20.00;61.40;;;;;;4989829;28;20066;-67
2023/04/23 04:57:24;;;;;;;1.58;0.75;;;19.90;61.30;;;;;;4983908;28;20109;-68
2023/04/23 04:59:51;;;;;;;2.58;1.00;;;19.90;61.30;;;;;;4985184;28;20046;-68
2023/04/23 05:02:18;;;;;;;1.75;1.13;;;19.90;61.30;;;;;;4989982;28;20528;-68
2023/04/23 05:04:45;;;;;;;2.47;1.38;;;20.00;61.40;;;;;;4989794;28;20058;-68
2023/04/23 05:07:14;;;;;;;1.92;0.95;;;20.00;61.40;;;;;;4989846;28;20058;-68
2023/04/23 05:09:41;;;;;;;1.77;0.70;;;19.90;61.30;;;;;;4989980;28;20100;-67
2023/04/23 05:12:07;;;;;;;2.95;1.25;;;20.00;61.30;;;;;;4989564;28;20046;-68
2023/04/23 05:14:34;;;;;;;1.80;0.73;;;19.90;61.30;;;;;;4989777;28;20058;-67
2023/04/23 05:17:01;;;;;;;1.73;0.85;;;20.00;61.30;;;;;;4989705;28;20573;-69
2023/04/23 05:19:28;;;;;;;1.67;0.60;;;19.90;61.50;;;;;;4990205;28;20043;-68
2023/04/23 05:21:55;;;;;;;2.03;1.00;;;19.90;61.30;;;;;;4990457;28;20049;-68
2023/04/23 05:24:24;;;;;;;2.00;0.63;;;19.90;61.30;;;;;;4989633;28;20093;-68
2023/04/23 05:26:50;;;;;;;1.63;0.90;;;20.00;61.30;;;;;;4988394;28;20061;-69
2023/04/23 05:29:18;;;;;;;1.92;0.90;;;19.90;61.30;;;;;;4989504;28;20046;-68
2023/04/23 05:31:46;;;;;;;2.00;1.10;;;19.90;61.30;;;;;;4989936;28;20053;-68
2023/04/23 05:34:13;;;;;;;1.77;0.88;;;19.90;61.30;;;;;;4988154;28;20141;-68
2023/04/23 05:36:40;;;;;;;2.05;1.13;;;19.90;61.30;;;;;;4989401;28;20058;-69
2023/04/23 05:39:07;;;;;;;2.20;1.08;;;19.90;61.30;;;;;;4988787;28;20510;-68
2023/04/23 05:41:35;;;;;;;2.53;1.30;;;19.90;61.30;;;;;;4989175;28;20530;-68
2023/04/23 05:44:02;;;;;;;2.10;1.17;;;19.90;61.30;;;;;;4989529;28;20063;-68
2023/04/23 05:46:29;;;;;;;1.85;1.15;;;19.90;61.30;;;;;;4989310;28;20054;-68
2023/04/23 05:48:56;;;;;;;2.30;0.95;;;19.90;61.20;;;;;;4989734;28;20053;-68
2023/04/23 05:51:23;;;;;;;2.10;0.93;;;19.90;61.20;;;;;;4988306;28;20063;-68
2023/04/23 05:53:50;;;;;;;1.80;0.93;;;19.90;61.20;;;;;;4989432;28;20499;-68
2023/04/23 05:56:17;;;;;;;1.88;0.75;;;19.90;61.20;;;;;;4989952;28;20079;-69
2023/04/23 05:58:46;;;;;;;2.03;1.00;;;19.90;61.20;;;;;;4989480;28;20050;-68
2023/04/23 06:01:13;;;;;;;2.40;1.13;;;19.90;61.20;;;;;;4989199;28;20438;-68
2023/04/23 06:03:44;;;;;;;2.50;1.20;;;19.90;61.20;;;;;;4989104;28;20500;-68
2023/04/23 06:06:11;;;;;;;1.85;1.00;;;19.90;61.80;;;;;;4988084;28;20098;-67
2023/04/23 06:08:38;;;;;;;2.00;1.05;;;19.90;61.20;;;;;;4987804;28;20488;-68
2023/04/23 06:11:06;;;;;;;2.00;0.88;;;19.90;61.10;;;;;;4992831;28;20050;-69
2023/04/23 06:13:39;;;;;;;2.00;1.00;;;19.90;61.10;;;;;;4993363;28;20046;-68
2023/04/23 06:16:07;;;;;;;2.30;1.00;;;19.90;61.10;;;;;;4992334;28;20054;-68
2023/04/23 06:18:34;;;;;;;2.05;0.95;;;19.90;61.10;;;;;;4992533;28;20050;-68
2023/04/23 06:21:03;;;;;;;1.80;0.95;;;19.90;61.10;;;;;;4991345;28;20054;-68
2023/04/23 06:23:30;;;;;;;2.13;1.17;;;19.90;61.10;;;;;;4990894;28;20089;-68
2023/04/23 06:25:57;;;;;;;1.77;0.95;;;19.90;61.10;;;;;;4992330;28;20050;-68
2023/04/23 06:28:24;;;;;;;2.08;0.93;;;19.90;61.10;;;;;;4991050;28;20054;-68
2023/04/23 06:30:51;;;;;;;1.98;1.08;;;19.90;61.10;;;;;;4991373;28;20177;-69
2023/04/23 06:33:19;;;;;;;2.05;0.88;;;19.90;61.10;;;;;;4992335;28;20042;-68
2023/04/23 06:35:46;;;;;;;2.35;1.40;;;19.90;61.10;;;;;;4991992;28;20046;-68
2023/04/23 06:38:13;;;;;;;1.95;0.93;;;19.90;61.10;;;;;;4990822;28;20078;-68
2023/04/23 06:40:41;;;;;;;2.15;1.05;;;19.90;61.70;;;;;;4990906;28;20054;-68
2023/04/23 06:43:08;;;;;;;2.03;1.08;;;19.90;61.10;;;;;;4991946;28;20050;-67
2023/04/23 06:45:35;;;;;;;2.58;1.33;;;19.90;61.10;;;;;;4992085;28;20094;-67
2023/04/23 06:48:02;;;;;;;2.65;1.52;;;19.90;61.10;;;;;;4992331;28;20070;-68
2023/04/23 06:50:31;;;;;;;2.03;1.38;;;20.00;61.20;;;;;;4982912;28;20517;-68
2023/04/23 06:52:58;;;;;;;1.98;0.98;;;20.00;61.20;;;;;;4971167;28;20488;-68
2023/04/23 06:55:25;;;;;;;2.30;1.20;;;20.00;61.10;;;;;;4971178;28;20051;-68
2023/04/23 06:57:52;;;;;;;1.83;1.17;;;20.00;61.10;;;;;;4972213;28;20106;-68
2023/04/23 07:00:19;;;;;;;2.05;1.10;;;20.00;61.10;;;;;;4972442;28;20138;-68
2023/04/23 07:02:46;;;;;;;1.80;0.95;;;20.00;61.10;;;;;;4972634;28;20067;-68
2023/04/23 07:05:13;;;;;;;3.05;1.00;;;20.10;61.10;;;;;;4996786;28;20061;-68
2023/04/23 07:07:42;;;;;;;2.03;0.90;;;20.10;61.10;;;;;;4991989;28;20097;-68
2023/04/23 07:10:11;;;;;;;2.08;0.90;;;20.10;61.10;;;;;;4991784;28;20463;-69
2023/04/23 07:12:38;;;;;;;2.30;0.95;;;20.10;61.10;;;;;;4991537;28;20495;-68
2023/04/23 07:15:06;;;;;;;2.67;1.48;;;20.10;61.00;;;;;;4990009;28;20050;-68
2023/04/23 07:17:33;;;;;;;2.35;1.13;;;20.10;61.00;;;;;;4972354;28;20050;-68
2023/04/23 07:20:03;;;;;;;1.90;1.00;;;20.20;61.00;;;;;;4975525;28;20043;-66
2023/04/23 07:22:30;;;;;;;2.10;1.00;;;20.20;61.00;;;;;;4991604;28;20050;-66
2023/04/23 07:24:59;;;;;;;2.78;1.17;;;20.30;60.90;;;;;;4991491;28;20054;-67
2023/04/23 07:27:26;;;;;;;2.47;0.95;;;20.30;60.80;;;;;;4989975;28;20109;-66
2023/04/23 07:29:53;;;;;;;2.38;1.40;;;20.30;60.70;;;;;;4991291;28;20046;-66
2023/04/23 07:32:22;;;;;;;2.67;1.33;;;20.30;60.70;;;;;;4991303;28;20046;-68
2023/04/23 07:34:49;;;;;;;2.17;1.20;;;20.40;60.60;;;;;;4991607;28;20087;-67
2023/04/23 07:37:16;;;;;;;2.00;1.10;;;20.40;60.60;;;;;;4990141;28;20046;-67
2023/04/23 07:39:42;;;;;;;2.22;1.05;;;20.50;60.60;;;;;;4991173;28;20062;-68
2023/04/23 07:42:11;;;;;;;2.13;1.10;;;20.50;60.50;;;;;;4991077;28;20483;-68
2023/04/23 07:44:38;;;;;;;2.00;1.13;;;20.50;60.50;;;;;;4989661;28;20077;-68
2023/04/23 07:47:05;;;;;;;2.10;1.10;;;20.50;60.40;;;;;;4990936;28;20050;-67
2023/04/23 07:49:32;;;;;;;2.50;1.20;;;20.60;60.40;;;;;;4987762;28;20647;-68
2023/04/23 07:51:58;;;;;;;2.15;1.33;;;20.60;60.40;;;;;;4983568;28;20057;-68
2023/04/23 07:54:26;;;;;;;2.13;1.42;;;20.60;60.30;;;;;;4978356;28;20050;-68
2023/04/23 07:56:53;;;;;;;2.60;1.45;;;20.60;60.30;;;;;;4991091;28;20062;-68
2023/04/23 07:59:21;;;;;;;2.47;1.20;;;20.60;60.30;;;;;;4989454;28;20050;-68
2023/04/23 08:01:48;;;;;;;2.70;1.60;;;20.70;60.30;;;;;;4990452;28;20050;-67
2023/04/23 08:04:15;;;;;;;2.58;1.55;;;20.70;60.30;;;;;;4990302;28;20058;-68
2023/04/23 08:06:42;;;;;;;2.58;1.35;;;20.70;60.30;;;;;;4990287;28;20054;-68
2023/04/23 08:09:09;;;;;;;2.30;1.20;;;20.70;60.30;;;;;;4990428;28;20060;-68
2023/04/23 08:11:36;;;;;;;2.40;1.42;;;20.70;60.30;;;;;;4996977;28;20085;-68
2023/04/23 08:14:03;;;;;;;2.35;1.30;;;20.70;60.20;;;;;;5006200;28;20054;-68
2023/04/23 08:16:31;;;;;;;2.60;1.45;;;20.70;60.30;;;;;;4990280;28;20056;-68
2023/04/23 08:18:58;;;;;;;2.17;1.13;;;20.70;60.20;;;;;;4990199;28;20483;-68
2023/04/23 08:21:26;;;;;;;2.42;1.27;;;20.70;60.20;;;;;;4989953;28;20495;-68
2023/04/23 08:23:53;;;;;;;2.15;1.25;;;20.80;60.30;;;;;;4989023;28;20059;-68
2023/04/23 08:26:20;;;;;;;3.03;1.40;;;20.80;60.20;;;;;;4990255;28;20051;-68
2023/04/23 08:28:47;;;;;;;2.55;1.35;;;20.80;60.20;;;;;;4998184;28;20061;-67
2023/04/23 08:31:15;;;;;;;2.20;1.58;;;20.80;60.20;;;;;;5009603;28;20042;-68
2023/04/23 08:33:43;;;;;;;2.55;1.45;;;20.80;60.20;;;;;;5008319;28;20058;-68
2023/04/23 08:36:10;;;;;;;2.80;1.60;;;20.80;60.30;;;;;;5009708;28;20054;-68
2023/04/23 08:38:37;;;;;;;2.72;1.55;;;20.70;60.20;;;;;;5009320;28;20054;-68
2023/04/23 08:41:06;;;;;;;2.40;1.38;;;20.70;60.30;;;;;;5009522;28;20069;-68
2023/04/23 08:43:41;;;;;;;2.42;1.35;;;20.70;60.30;;;;;;4998378;28;20456;-68
2023/04/23 08:46:12;;;;;;;2.42;1.58;;;20.70;60.30;;;;;;4999669;28;20053;-68
2023/04/23 08:48:40;;;;;;;2.17;1.25;;;20.70;60.40;;;;;;5009661;28;20047;-68
2023/04/23 08:51:10;;;;;;;2.72;1.40;;;20.70;60.30;;;;;;4984414;28;20145;-68
2023/04/23 08:53:38;;;;;;;2.40;1.60;;;20.80;60.40;;;;;;4975025;28;20467;-68
2023/04/23 08:56:06;;;;;;;3.08;1.70;;;20.70;60.30;;;;;;4968643;28;20058;-68
2023/04/23 08:58:35;;;;;;;2.95;1.52;;;20.70;60.40;;;;;;4970176;28;20059;-67
2023/04/23 09:01:02;;;;;;;2.40;1.40;;;20.70;60.40;;;;;;4970197;28;20050;-68
2023/04/23 09:03:29;;;;;;;2.63;1.45;;;20.70;60.40;;;;;;4984118;28;20058;-68
2023/04/23 09:05:57;;;;;;;2.40;1.60;;;20.70;60.40;;;;;;4989147;28;20050;-68
2023/04/23 09:08:26;;;;;;;2.55;1.30;;;20.70;60.40;;;;;;4989288;28;20463;-68
2023/04/23 09:10:56;;;;;;;2.60;1.35;;;20.70;60.90;;;;;;4988371;28;20094;-67
2023/04/23 09:13:23;;;;;;;2.45;1.52;;;20.80;60.40;;;;;;4979760;28;20162;-68
2023/04/23 09:15:49;;;;;;;2.60;1.85;;;20.80;60.40;;;;;;4969986;28;20055;-68
2023/04/23 09:18:17;;;;;;;2.50;1.85;;;20.80;60.40;;;;;;4983817;28;20050;-68
2023/04/23 09:20:44;;;;;;;3.63;1.73;;;20.80;60.40;;;;;;4990160;28;20058;-67
2023/04/23 09:23:15;;;;;;;2.38;1.67;;;20.80;60.40;;;;;;4989445;28;20056;-68
2023/04/23 09:25:43;;;;;;;3.50;1.58;;;20.80;60.40;;;;;;4989081;28;20094;-68
2023/04/23 09:28:10;;;;;;;2.10;1.33;;;20.80;60.40;;;;;;4988093;28;20059;-68
2023/04/23 09:30:44;;;;;;;3.72;1.70;;;20.80;60.50;;;;;;4988065;28;20088;-68
2023/04/23 09:33:12;;;;;;;2.90;1.77;;;20.80;60.50;;;;;;4989191;28;20058;-68
2023/04/23 09:35:41;;;;;;;1.90;1.30;;;20.90;60.50;;;;;;4989410;28;20496;-68
2023/04/23 09:38:09;;;;;;;2.42;1.38;;;20.90;60.50;;;;;;4989594;28;20125;-68
2023/04/23 09:40:37;;;;;;;2.45;1.70;;;20.90;60.60;;;;;;4989372;28;20050;-67
2023/04/23 09:43:06;;;;;;;3.47;1.67;;;20.90;60.50;;;;;;4989077;28;20161;-68
2023/04/23 09:45:35;;;;;;;2.97;1.95;;;20.90;61.00;;;;;;4992179;28;20257;-67
2023/04/23 09:48:02;;;;;;;2.50;1.52;;;20.90;60.40;;;;;;4991541;28;20120;-68
2023/04/23 09:50:33;;;;;;;2.40;1.52;;;21.00;60.40;;;;;;4983006;28;20054;-68
2023/04/23 09:53:00;;;;;;;2.70;1.75;;;21.00;60.40;;;;;;4982766;28;20050;-68
2023/04/23 09:55:29;;;;;;;2.40;1.38;;;21.00;60.40;;;;;;4992818;28;20042;-68
2023/04/23 09:57:57;;;;;;;2.47;1.20;;;21.00;60.40;;;;;;4992418;28;20058;-68
2023/04/23 10:00:29;;;;;;;2.67;1.83;;;21.00;60.40;;;;;;4991347;28;20054;-68
2023/04/23 10:02:56;;;;;;;2.60;1.60;;;21.00;60.40;;;;;;4991660;28;20058;-67
2023/04/23 10:05:23;;;;;;;2.53;1.52;;;21.00;60.40;;;;;;4992424;28;20054;-67
2023/04/23 10:07:50;;;;;;;2.65;1.45;;;21.00;60.40;;;;;;4991135;28;20055;-68
2023/04/23 10:10:17;;;;;;;2.30;1.33;;;21.00;60.40;;;;;;4993085;28;20107;-68
2023/04/23 10:12:45;;;;;;;2.25;1.55;;;21.10;60.50;;;;;;4991976;28;20499;-67
2023/04/23 10:15:14;;;;;;;2.58;1.27;;;21.10;60.40;;;;;;4992634;28;20050;-67
2023/04/23 10:17:43;;;;;;;2.47;1.52;;;21.10;60.50;;;;;;4991065;28;20511;-68
2023/04/23 10:20:12;;;;;;;2.78;1.48;;;21.10;60.50;;;;;;4992620;28;20134;-68
2023/04/23 10:22:40;;;;;;;2.33;1.27;;;21.10;60.50;;;;;;4992188;28;20500;-67
2023/04/23 10:25:11;;;;;;;2.30;1.45;;;21.10;60.50;;;;;;4990961;28;20058;-67
2023/04/23 10:27:39;;;;;;;2.75;1.38;;;21.10;60.50;;;;;;4991350;28;20054;-69
2023/04/23 10:30:08;;;;;;;2.30;1.40;;;21.10;60.50;;;;;;4992488;28;20104;-68
2023/04/23 10:32:35;;;;;;;2.30;1.50;;;21.10;60.50;;;;;;4991028;28;20061;-68
2023/04/23 10:35:05;;;;;;;2.80;1.67;;;21.10;60.50;;;;;;4992354;28;20050;-67
2023/04/23 10:37:33;;;;;;;2.10;1.30;;;21.20;60.60;;;;;;4990655;28;20519;-67
2023/04/23 10:40:10;;;;;;;2.30;1.50;;;21.10;60.50;;;;;;4992046;28;20050;-68
2023/04/23 10:42:37;;;;;;;2.08;1.38;;;21.10;60.60;;;;;;4990785;28;20060;-68
2023/04/23 10:45:12;;;;;;;2.33;1.40;;;21.10;60.60;;;;;;4991316;28;20061;-68
2023/04/23 10:47:39;;;;;;;2.72;1.65;;;21.10;60.60;;;;;;4990583;28;20054;-68
2023/04/23 10:50:21;;;;;;;2.63;1.55;;;21.20;60.70;;;;;;4988781;28;20069;-68
2023/04/23 10:52:52;;;;;;;1.85;1.20;;;21.20;60.70;;;;;;4981874;28;20146;-68
2023/04/23 10:55:21;;;;;;;2.28;1.35;;;21.20;60.60;;;;;;4970594;28;20061;-68
2023/04/23 10:58:02;;;;;;;2.10;1.20;;;21.20;60.60;;;;;;4971130;28;20086;-68
2023/04/23 11:00:41;;;;;;;2.38;1.45;;;21.20;60.70;;;;;;4972096;28;20050;-68
2023/04/23 11:03:29;;;;;;;2.55;1.40;;;21.20;60.60;;;;;;5010240;28;20105;-68
2023/04/23 11:05:58;;;;;;;2.83;1.40;;;21.20;60.60;;;;;;4971846;28;20054;-68
2023/04/23 11:08:24;;;;;;;2.50;1.70;;;21.20;60.60;;;;;;4970622;28;20507;-68
2023/04/23 11:10:56;;;;;;;2.78;1.48;;;21.30;60.70;;;;;;4983373;28;20050;-67
2023/04/23 11:13:23;;;;;;;2.10;1.15;;;21.30;60.70;;;;;;4990179;28;20146;-68
2023/04/23 11:16:15;;;;;;;2.17;1.40;;;21.30;60.70;;;;;;4991032;28;20058;-67
2023/04/23 11:18:58;;;;;;;2.63;1.60;;;21.30;60.70;;;;;;4992031;28;20827;-69
2023/04/23 11:22:00;;;;;;;2.20;1.00;;;21.30;60.70;;;;;;4989402;28;20062;-68
2023/04/23 11:24:31;;;;;;;2.80;1.30;;;21.30;60.60;;;;;;4990137;28;20124;-69
2023/04/23 11:27:00;;;;;;;2.28;1.10;;;21.40;60.60;;;;;;4989742;28;20500;-68
2023/04/23 11:29:28;;;;;;;2.20;1.60;;;21.40;60.60;;;;;;4991063;28;20085;-69
2023/04/23 11:31:55;;;;;;;2.38;1.23;;;21.40;61.20;;;;;;4991199;28;20404;-68
2023/04/23 11:34:24;;;;;;;2.17;1.33;;;21.40;60.60;;;;;;4990991;28;20423;-68
2023/04/23 11:36:53;;;;;;;2.40;1.13;;;21.40;60.60;;;;;;5007927;28;20514;-67
2023/04/23 11:39:23;;;;;;;2.47;1.55;;;21.50;60.60;;;;;;5010515;28;20058;-69
2023/04/23 11:41:51;;;;;;;2.47;1.25;;;21.50;60.60;;;;;;5010333;28;20702;-68
2023/04/23 11:44:18;;;;;;;2.30;1.50;;;21.50;60.60;;;;;;5010456;28;20050;-67
2023/04/23 11:46:47;;;;;;;2.42;1.13;;;21.40;60.60;;;;;;5010662;28;20873;-69
2023/04/23 11:49:15;;;;;;;2.55;1.48;;;21.50;60.70;;;;;;5009279;28;20130;-68
2023/04/23 11:51:44;;;;;;;2.50;1.35;;;21.40;60.70;;;;;;5008799;28;20054;-68
2023/04/23 11:54:12;;;;;;;2.55;1.63;;;21.50;60.70;;;;;;4990871;28;20058;-67
2023/04/23 11:56:41;;;;;;;2.50;1.45;;;21.50;60.70;;;;;;4989239;28;20042;-68
2023/04/23 11:59:08;;;;;;;2.05;1.30;;;21.50;60.70;;;;;;4990565;28;20050;-67
2023/04/23 12:01:45;;;;;;;2.05;1.30;;;21.50;60.70;;;;;;4990675;28;20053;-68
2023/04/23 12:04:15;;;;;;;2.10;1.20;;;21.50;60.70;;;;;;4988981;28;20058;-68
2023/04/23 12:06:44;;;;;;;2.40;1.23;;;21.50;60.70;;;;;;4989418;28;20631;-68
2023/04/23 12:09:12;;;;;;;3.38;1.38;;;21.50;60.70;;;;;;4985748;28;20104;-68
2023/04/23 12:11:41;;;;;;;2.53;1.17;;;21.60;60.70;;;;;;4990095;28;20086;-68
2023/04/23 12:14:09;;;;;;;1.85;1.13;;;21.50;60.70;;;;;;4989305;28;20504;-68
2023/04/23 12:16:38;;;;;;;2.17;1.13;;;21.50;60.70;;;;;;4990125;28;20050;-68
2023/04/23 12:19:08;;;;;;;2.25;1.23;;;21.50;60.70;;;;;;4988576;28;20061;-69
2023/04/23 12:21:46;;;;;;;2.28;1.23;;;21.50;60.80;;;;;;4989834;28;20225;-68
2023/04/23 12:24:13;;;;;;;2.17;1.13;;;21.60;60.80;;;;;;4990005;28;20512;-68
2023/04/23 12:26:42;;;;;;;2.00;0.98;;;21.60;60.70;;;;;;4990506;28;20054;-67
2023/04/23 12:29:09;;;;;;;2.20;1.25;;;21.60;60.70;;;;;;4989901;28;20458;-68
2023/04/23 12:31:38;;;;;;;2.20;1.23;;;21.60;60.70;;;;;;4988802;28;20054;-68
2023/04/23 12:34:06;;;;;;;;;;;21.60;60.70;;;;;;4989969;28;20476;-68
2023/04/23 12:36:33;;;;;;;1.75;1.00;;;21.60;60.80;;;;;;4988848;28;19925;-67
2023/04/23 12:39:23;;;;;;;2.45;1.13;;;21.50;60.70;;;;;;4989787;28;20065;-68
2023/04/23 12:41:53;;;;;;;2.10;1.23;;;21.50;60.80;;;;;;4988729;28;20125;-68
2023/04/23 12:44:20;;;;;;;;;;;21.50;60.80;;;;;;4989523;28;20074;-68
2023/04/23 12:46:50;;;;;;;2.10;1.02;;;21.50;60.80;;;;;;4980374;28;19922;-68
2023/04/23 12:49:17;;;;;;;2.10;1.00;;;21.60;60.70;;;;;;4970476;28;20129;-68
2023/04/23 12:51:44;;;;;;;1.77;1.08;;;21.60;60.70;;;;;;4969136;28;20066;-68
2023/04/23 12:54:11;;;;;;;2.70;1.15;;;21.60;60.60;;;;;;4970655;28;20082;-67